createdAt,value
2023-03-24T00:01:19.944Z,11.10
2023-03-24T00:03:48.755Z,11.10
2023-03-24T00:06:15.658Z,11.00
2023-03-24T00:08:43.914Z,11.00
2023-03-24T00:11:12.037Z,11.00
2023-03-24T00:13:39.824Z,11.00
2023-03-24T00:16:09.918Z,11.00
2023-03-24T00:18:37.184Z,11.00
2023-03-24T00:21:05.240Z,11.00
2023-03-24T00:23:33.738Z,11.00
2023-03-24T00:26:06.558Z,11.00
2023-03-24T00:28:37.000Z,11.00
2023-03-24T00:31:06.493Z,11.00
2023-03-24T00:33:34.936Z,11.00
2023-03-24T00:36:03.605Z,11.10
2023-03-24T00:38:30.344Z,11.10
2023-03-24T00:40:57.050Z,11.10
2023-03-24T00:43:24.135Z,11.10
2023-03-24T00:45:52.486Z,11.10
2023-03-24T00:48:20.418Z,11.00
2023-03-24T00:50:48.799Z,11.00
2023-03-24T00:53:15.976Z,11.00
2023-03-24T00:55:46.076Z,11.00
2023-03-24T00:58:21.688Z,11.00
2023-03-24T01:00:58.116Z,11.00
2023-03-24T01:03:27.517Z,11.00
2023-03-24T01:05:57.788Z,10.90
2023-03-24T01:08:25.668Z,10.90
2023-03-24T01:10:53.383Z,10.80
2023-03-24T01:13:26.400Z,10.70
2023-03-24T01:15:54.098Z,10.70
2023-03-24T01:18:23.702Z,10.70
2023-03-24T01:20:50.803Z,10.80
2023-03-24T01:23:23.119Z,10.80
2023-03-24T01:25:50.466Z,10.80
2023-03-24T01:28:24.896Z,10.80
2023-03-24T01:30:53.048Z,10.90
2023-03-24T01:33:20.877Z,10.90
2023-03-24T01:35:47.835Z,11.00
2023-03-24T01:38:15.648Z,10.90
2023-03-24T01:40:45.124Z,10.90
2023-03-24T01:43:21.910Z,11.00
2023-03-24T01:45:55.813Z,11.00
2023-03-24T01:48:27.906Z,11.00
2023-03-24T01:51:11.165Z,11.00
2023-03-24T01:53:41.773Z,11.00
2023-03-24T01:56:09.292Z,11.00
2023-03-24T01:58:39.240Z,11.00
2023-03-24T02:01:06.375Z,11.00
2023-03-24T02:03:38.617Z,11.00
2023-03-24T02:06:05.424Z,10.90
2023-03-24T02:08:44.587Z,10.90
2023-03-24T02:11:11.442Z,10.80
2023-03-24T02:13:38.184Z,10.80
2023-03-24T02:16:46.811Z,10.60
2023-03-24T02:19:37.882Z,10.50
2023-03-24T02:22:38.388Z,10.50
2023-03-24T02:25:11.356Z,10.40
2023-03-24T02:28:17.070Z,10.40
2023-03-24T02:30:43.935Z,10.40
2023-03-24T02:33:32.370Z,10.50
2023-03-24T02:36:37.937Z,10.50
2023-03-24T02:39:22.868Z,10.60
2023-03-24T02:42:15.843Z,10.60
2023-03-24T02:45:11.620Z,10.70
2023-03-24T02:47:53.440Z,10.80
2023-03-24T02:50:31.948Z,10.80
2023-03-24T02:53:32.167Z,10.80
2023-03-24T02:56:22.284Z,10.80
2023-03-24T02:59:21.048Z,10.80
2023-03-24T03:02:00.635Z,10.80
2023-03-24T03:04:37.079Z,10.80
2023-03-24T03:07:10.048Z,10.90
2023-03-24T03:09:42.238Z,10.90
2023-03-24T03:12:11.596Z,10.90
2023-03-24T03:14:54.220Z,10.90
2023-03-24T03:17:33.354Z,10.80
2023-03-24T03:20:06.559Z,10.80
2023-03-24T03:22:59.842Z,10.90
2023-03-24T03:25:32.412Z,10.90
2023-03-24T03:28:03.582Z,10.90
2023-03-24T03:30:40.220Z,11.00
2023-03-24T03:33:18.218Z,11.00
2023-03-24T03:35:52.185Z,11.00
2023-03-24T03:38:34.562Z,11.00
2023-03-24T03:41:02.598Z,11.00
2023-03-24T03:43:31.415Z,11.00
2023-03-24T03:45:59.834Z,10.90
2023-03-24T03:48:27.781Z,10.80
2023-03-24T03:51:10.172Z,10.70
2023-03-24T03:54:02.344Z,10.60
2023-03-24T03:56:31.249Z,10.50
2023-03-24T03:58:58.175Z,10.50
2023-03-24T04:01:27.856Z,10.50
2023-03-24T04:04:53.241Z,10.40
2023-03-24T04:07:31.015Z,10.40
2023-03-24T04:09:57.672Z,10.40
2023-03-24T04:12:43.067Z,10.40
2023-03-24T04:15:26.218Z,10.40
2023-03-24T04:18:11.350Z,10.50
2023-03-24T04:20:46.730Z,10.50
2023-03-24T04:23:41.649Z,10.60
2023-03-24T04:26:34.408Z,10.70
2023-03-24T04:29:04.213Z,10.70
2023-03-24T04:31:41.113Z,10.70
2023-03-24T04:34:20.816Z,10.80
2023-03-24T04:37:02.650Z,10.80
2023-03-24T04:39:31.868Z,10.80
2023-03-24T04:42:02.423Z,10.80
2023-03-24T04:44:32.897Z,10.80
2023-03-24T04:47:02.218Z,10.80
2023-03-24T04:49:36.790Z,10.90
2023-03-24T04:52:03.823Z,10.90
2023-03-24T04:54:30.621Z,10.90
2023-03-24T04:57:01.624Z,11.00
2023-03-24T04:59:29.696Z,11.00
2023-03-24T05:01:56.652Z,11.00
2023-03-24T05:04:26.045Z,11.00
2023-03-24T05:06:52.770Z,11.10
2023-03-24T05:09:21.646Z,11.00
2023-03-24T05:11:48.891Z,10.90
2023-03-24T05:14:16.163Z,10.90
2023-03-24T05:16:42.957Z,10.80
2023-03-24T05:19:10.913Z,10.80
2023-03-24T05:21:37.982Z,10.80
2023-03-24T05:24:05.211Z,10.80
2023-03-24T05:26:33.334Z,10.80
2023-03-24T05:29:00.465Z,10.80
2023-03-24T05:31:27.269Z,10.80
2023-03-24T05:33:53.974Z,10.80
2023-03-24T05:36:20.953Z,10.80
2023-03-24T05:38:47.659Z,10.80
2023-03-24T05:41:14.271Z,10.80
2023-03-24T05:43:40.911Z,10.90
2023-03-24T05:46:07.965Z,10.90
2023-03-24T05:48:34.801Z,10.90
2023-03-24T05:51:01.879Z,10.90
2023-03-24T05:53:28.504Z,10.90
2023-03-24T05:55:55.141Z,10.90
2023-03-24T05:58:21.912Z,11.00
2023-03-24T06:00:48.731Z,11.00
2023-03-24T06:03:17.283Z,11.00
2023-03-24T06:05:46.084Z,11.10
2023-03-24T06:08:13.368Z,11.10
2023-03-24T06:10:40.793Z,11.20
2023-03-24T06:13:09.094Z,11.20
2023-03-24T06:15:36.396Z,11.30
2023-03-24T06:18:05.387Z,11.40
2023-03-24T06:20:32.437Z,11.50
2023-03-24T06:22:59.908Z,11.70
2023-03-24T06:25:28.714Z,11.80
2023-03-24T06:27:55.530Z,11.90
2023-03-24T06:30:22.645Z,12.00
2023-03-24T06:32:50.323Z,12.00
2023-03-24T06:35:17.443Z,12.00
2023-03-24T06:37:44.911Z,12.00
2023-03-24T06:40:15.264Z,12.00
2023-03-24T06:42:42.082Z,12.00
2023-03-24T06:45:09.613Z,11.90
2023-03-24T06:47:36.890Z,11.80
2023-03-24T06:50:05.570Z,11.70
2023-03-24T06:52:32.343Z,11.60
2023-03-24T06:54:59.030Z,11.60
2023-03-24T06:57:26.059Z,11.50
2023-03-24T06:59:53.328Z,11.50
2023-03-24T07:02:20.474Z,11.40
2023-03-24T07:04:47.765Z,11.40
2023-03-24T07:07:44.852Z,11.40
2023-03-24T07:10:01.650Z,11.40
2023-03-24T07:12:28.495Z,11.40
2023-03-24T07:14:56.004Z,11.40
2023-03-24T07:17:24.306Z,11.50
2023-03-24T07:19:51.975Z,11.50
2023-03-24T07:22:18.639Z,11.40
2023-03-24T07:24:45.344Z,11.40
2023-03-24T07:27:11.968Z,11.40
2023-03-24T07:29:38.613Z,11.40
2023-03-24T07:32:07.835Z,11.40
2023-03-24T07:34:36.928Z,11.50
2023-03-24T07:37:03.565Z,11.50
2023-03-24T07:39:31.046Z,11.50
2023-03-24T07:41:57.728Z,11.60
2023-03-24T07:44:25.090Z,11.60
2023-03-24T07:46:51.792Z,11.70
2023-03-24T07:49:20.075Z,11.70
2023-03-24T07:51:47.019Z,11.60
2023-03-24T07:54:13.730Z,11.60
2023-03-24T07:56:40.606Z,11.60
2023-03-24T07:59:09.576Z,11.60
2023-03-24T08:01:37.536Z,11.60
2023-03-24T08:04:06.645Z,11.60
2023-03-24T08:06:34.794Z,11.70
2023-03-24T08:09:01.487Z,11.70
2023-03-24T08:11:28.381Z,11.80
2023-03-24T08:13:55.118Z,11.90
2023-03-24T08:16:22.319Z,12.10
2023-03-24T08:18:50.647Z,12.10
2023-03-24T08:21:17.388Z,12.20
2023-03-24T08:23:44.267Z,12.30
2023-03-24T08:26:10.929Z,12.30
2023-03-24T08:28:38.452Z,12.30
2023-03-24T08:31:05.511Z,12.40
2023-03-24T08:33:32.274Z,12.40
2023-03-24T08:36:00.787Z,12.60
2023-03-24T08:38:31.447Z,12.60
2023-03-24T08:41:06.565Z,12.60
2023-03-24T08:43:35.456Z,12.80
2023-03-24T08:46:02.757Z,12.90
2023-03-24T08:48:30.594Z,13.00
2023-03-24T08:50:57.254Z,13.10
2023-03-24T08:53:24.137Z,13.10
2023-03-24T08:55:51.431Z,13.10
2023-03-24T08:58:21.955Z,13.10
2023-03-24T09:00:49.412Z,13.10
2023-03-24T09:03:22.126Z,12.90
2023-03-24T09:05:49.601Z,12.80
2023-03-24T09:08:18.735Z,12.60
2023-03-24T09:10:49.614Z,12.60
2023-03-24T09:13:16.492Z,12.60
2023-03-24T09:15:54.723Z,12.60
2023-03-24T09:18:22.260Z,12.80
2023-03-24T09:20:49.838Z,13.10
2023-03-24T09:23:16.954Z,13.20
2023-03-24T09:25:43.802Z,13.30
2023-03-24T09:28:10.753Z,13.40
2023-03-24T09:30:37.641Z,13.50
2023-03-24T09:33:04.407Z,13.80
2023-03-24T09:35:31.412Z,14.10
2023-03-24T09:37:58.283Z,14.20
2023-03-24T09:40:31.550Z,14.50
2023-03-24T09:43:08.841Z,15.00
2023-03-24T09:46:09.968Z,15.30
2023-03-24T09:48:39.696Z,15.50
2023-03-24T09:51:26.015Z,15.80
2023-03-24T09:54:08.134Z,16.00
2023-03-24T09:56:38.168Z,16.30
2023-03-24T09:59:07.620Z,16.20
2023-03-24T10:01:36.342Z,16.00
2023-03-24T10:04:04.486Z,15.80
2023-03-24T10:06:40.044Z,15.80
2023-03-24T10:09:36.207Z,15.80
2023-03-24T10:12:21.306Z,16.00
2023-03-24T10:15:09.382Z,16.20
2023-03-24T10:18:00.490Z,16.60
2023-03-24T10:20:47.451Z,16.10
2023-03-24T10:23:41.868Z,15.70
2023-03-24T10:26:53.607Z,15.70
2023-03-24T10:29:33.843Z,15.80
2023-03-24T10:32:29.765Z,15.60
2023-03-24T10:35:00.223Z,15.60
2023-03-24T10:37:30.549Z,15.70
2023-03-24T10:39:57.299Z,15.70
2023-03-24T10:42:31.740Z,15.40
2023-03-24T10:44:58.699Z,15.60
2023-03-24T10:47:27.921Z,15.70
2023-03-24T10:49:59.303Z,15.50
2023-03-24T10:52:26.846Z,15.60
2023-03-24T10:54:58.523Z,15.70
2023-03-24T10:57:27.080Z,15.80
2023-03-24T11:00:14.706Z,16.00
2023-03-24T11:02:42.704Z,16.20
2023-03-24T11:05:18.930Z,16.50
2023-03-24T11:07:48.844Z,16.50
2023-03-24T11:10:23.792Z,16.40
2023-03-24T11:12:59.421Z,16.30
2023-03-24T11:15:32.180Z,16.10
2023-03-24T11:18:04.219Z,15.80
2023-03-24T11:20:32.407Z,15.40
2023-03-24T11:23:02.078Z,15.40
2023-03-24T11:25:34.040Z,15.30
2023-03-24T11:28:22.817Z,15.30
2023-03-24T11:30:54.919Z,15.50
2023-03-24T11:33:35.161Z,15.60
2023-03-24T11:36:35.896Z,15.40
2023-03-24T11:39:24.074Z,15.20
2023-03-24T11:42:12.127Z,15.30
2023-03-24T11:44:38.938Z,15.30
2023-03-24T11:47:24.790Z,15.00
2023-03-24T11:49:54.633Z,15.00
2023-03-24T11:52:27.795Z,15.20
2023-03-24T11:54:55.320Z,15.60
2023-03-24T11:57:48.467Z,16.00
2023-03-24T12:00:37.840Z,16.20
2023-03-24T12:03:10.862Z,16.30
2023-03-24T12:05:45.367Z,16.10
2023-03-24T12:08:38.724Z,15.80
2023-03-24T12:11:20.510Z,15.60
2023-03-24T12:13:49.954Z,15.40
2023-03-24T12:16:34.693Z,15.30
2023-03-24T12:19:29.609Z,14.90
2023-03-24T12:22:15.040Z,14.80
2023-03-24T12:25:16.309Z,14.60
2023-03-24T12:27:54.828Z,14.50
2023-03-24T12:30:49.154Z,14.50
2023-03-24T12:33:45.330Z,14.30
2023-03-24T12:36:19.085Z,14.30
2023-03-24T12:38:54.303Z,14.30
2023-03-24T12:41:39.055Z,14.20
2023-03-24T12:44:47.071Z,14.30
2023-03-24T12:47:31.611Z,14.30
2023-03-24T12:50:01.138Z,14.10
2023-03-24T12:53:05.048Z,14.10
2023-03-24T12:55:43.447Z,14.00
2023-03-24T12:58:10.326Z,13.80
2023-03-24T13:00:42.558Z,13.50
2023-03-24T13:03:18.953Z,13.40
2023-03-24T13:05:51.156Z,12.30
2023-03-24T13:08:29.261Z,11.60
2023-03-24T13:11:05.357Z,11.60
2023-03-24T13:13:37.447Z,11.40
2023-03-24T13:16:11.056Z,11.10
2023-03-24T13:18:40.343Z,11.10
2023-03-24T13:21:15.045Z,11.20
2023-03-24T13:24:00.350Z,11.10
2023-03-24T13:26:42.741Z,11.00
2023-03-24T13:29:24.364Z,10.80
2023-03-24T13:32:10.359Z,10.70
2023-03-24T13:34:48.878Z,10.60
2023-03-24T13:37:29.838Z,10.70
2023-03-24T13:39:59.983Z,10.50
2023-03-24T13:42:59.782Z,10.40
2023-03-24T13:45:49.805Z,10.30
2023-03-24T13:48:37.863Z,10.30
2023-03-24T13:51:25.325Z,10.40
2023-03-24T13:53:59.698Z,10.40
2023-03-24T13:56:48.034Z,10.20
2023-03-24T13:59:24.666Z,10.10
2023-03-24T14:02:09.790Z,10.00
2023-03-24T14:05:12.591Z,10.00
2023-03-24T14:07:39.147Z,9.90
2023-03-24T14:10:49.234Z,9.90
2023-03-24T14:13:16.189Z,9.90
2023-03-24T14:15:53.392Z,10.00
2023-03-24T14:18:23.593Z,10.10
2023-03-24T14:20:56.631Z,10.00
2023-03-24T14:23:39.237Z,10.20
2023-03-24T14:26:21.400Z,10.30
2023-03-24T14:28:50.386Z,10.60
2023-03-24T14:31:19.561Z,10.80
2023-03-24T14:33:52.667Z,11.00
2023-03-24T14:36:40.131Z,11.20
2023-03-24T14:39:27.077Z,11.20
2023-03-24T14:41:53.981Z,11.00
2023-03-24T14:44:46.143Z,11.10
2023-03-24T14:47:29.764Z,11.20
2023-03-24T14:49:58.349Z,11.20
2023-03-24T14:52:34.151Z,11.30
2023-03-24T14:55:03.421Z,11.30
2023-03-24T14:57:37.829Z,11.40
2023-03-24T15:00:08.805Z,11.50
2023-03-24T15:02:39.515Z,11.60
2023-03-24T15:05:20.506Z,11.50
2023-03-24T15:08:12.247Z,11.50
2023-03-24T15:10:56.316Z,11.70
2023-03-24T15:13:34.673Z,11.80
2023-03-24T15:16:24.047Z,11.90
2023-03-24T15:19:01.314Z,11.90
2023-03-24T15:21:58.276Z,12.10
2023-03-24T15:24:35.767Z,12.20
2023-03-24T15:27:08.460Z,12.30
2023-03-24T15:29:36.826Z,12.20
2023-03-24T15:32:04.775Z,12.30
2023-03-24T15:34:35.119Z,12.40
2023-03-24T15:37:04.175Z,12.60
2023-03-24T15:39:39.505Z,12.80
2023-03-24T15:42:09.070Z,13.00
2023-03-24T15:44:39.313Z,13.20
2023-03-24T15:47:16.157Z,13.20
2023-03-24T15:50:28.679Z,13.20
2023-03-24T15:53:04.393Z,13.20
2023-03-24T15:55:36.647Z,13.00
2023-03-24T15:58:24.864Z,13.00
2023-03-24T16:00:59.826Z,12.90
2023-03-24T16:03:27.727Z,12.90
2023-03-24T16:05:56.410Z,12.80
2023-03-24T16:08:40.883Z,12.60
2023-03-24T16:11:14.542Z,12.40
2023-03-24T16:13:44.709Z,12.20
2023-03-24T16:16:14.277Z,12.10
2023-03-24T16:18:47.234Z,12.00
2023-03-24T16:21:20.426Z,12.10
2023-03-24T16:23:48.823Z,12.00
2023-03-24T16:26:22.534Z,12.10
2023-03-24T16:28:50.052Z,12.00
2023-03-24T16:31:19.480Z,12.00
2023-03-24T16:33:46.818Z,11.90
2023-03-24T16:36:13.769Z,11.90
2023-03-24T16:38:40.596Z,12.00
2023-03-24T16:41:10.946Z,12.00
2023-03-24T16:43:37.929Z,12.10
2023-03-24T16:46:05.763Z,12.20
2023-03-24T16:48:32.539Z,12.30
2023-03-24T16:50:59.295Z,12.30
2023-03-24T16:53:26.072Z,12.20
2023-03-24T16:55:52.942Z,12.00
2023-03-24T16:58:19.664Z,12.00
2023-03-24T17:00:48.963Z,11.90
2023-03-24T17:03:18.001Z,11.90
2023-03-24T17:05:51.119Z,11.90
2023-03-24T17:08:19.151Z,11.90
2023-03-24T17:10:49.169Z,11.80
2023-03-24T17:13:24.758Z,11.70
2023-03-24T17:15:52.336Z,11.60
2023-03-24T17:18:19.765Z,11.50
2023-03-24T17:20:46.975Z,11.20
2023-03-24T17:23:18.468Z,11.10
2023-03-24T17:25:45.650Z,10.90
2023-03-24T17:28:16.855Z,10.70
2023-03-24T17:30:44.082Z,10.50
2023-03-24T17:33:14.977Z,10.40
2023-03-24T17:35:44.575Z,10.30
2023-03-24T17:38:14.533Z,10.10
2023-03-24T17:40:41.726Z,10.00
2023-03-24T17:43:08.622Z,9.90
2023-03-24T17:45:35.452Z,9.80
2023-03-24T17:48:02.217Z,9.70
2023-03-24T17:50:30.657Z,9.70
2023-03-24T17:52:57.362Z,9.60
2023-03-24T17:55:23.984Z,9.50
2023-03-24T17:57:50.790Z,9.50
2023-03-24T18:00:17.781Z,9.40
2023-03-24T18:02:44.996Z,9.40
2023-03-24T18:05:12.522Z,9.30
2023-03-24T18:07:40.240Z,9.30
2023-03-24T18:10:08.178Z,9.30
2023-03-24T18:12:36.024Z,9.20
2023-03-24T18:15:04.680Z,9.20
2023-03-24T18:17:31.533Z,9.20
2023-03-24T18:19:59.947Z,9.10
2023-03-24T18:22:27.259Z,9.10
2023-03-24T18:24:54.643Z,9.10
2023-03-24T18:27:21.373Z,9.10
2023-03-24T18:29:48.045Z,9.10
2023-03-24T18:32:14.957Z,9.10
2023-03-24T18:34:44.736Z,9.10
2023-03-24T18:37:14.398Z,9.00
2023-03-24T18:39:41.446Z,9.10
2023-03-24T18:42:08.176Z,9.00
2023-03-24T18:44:35.209Z,9.00
2023-03-24T18:47:01.897Z,9.00
2023-03-24T18:49:28.780Z,9.00
2023-03-24T18:51:55.408Z,9.00
2023-03-24T18:54:22.290Z,9.00
2023-03-24T18:56:49.019Z,8.90
2023-03-24T18:59:16.095Z,8.90
2023-03-24T19:01:47.070Z,8.90
2023-03-24T19:04:14.337Z,8.90
2023-03-24T19:06:42.436Z,8.80
2023-03-24T19:09:11.016Z,8.80
2023-03-24T19:11:37.858Z,8.80
2023-03-24T19:14:04.560Z,8.80
2023-03-24T19:16:31.752Z,8.70
2023-03-24T19:18:58.534Z,8.70
2023-03-24T19:21:25.507Z,8.70
2023-03-24T19:23:53.099Z,8.70
2023-03-24T19:26:20.569Z,8.60
2023-03-24T19:28:47.482Z,8.60
2023-03-24T19:31:17.226Z,8.60
2023-03-24T19:33:45.330Z,8.60
2023-03-24T19:36:12.352Z,8.60
2023-03-24T19:38:39.489Z,8.50
2023-03-24T19:41:08.274Z,8.50
2023-03-24T19:43:36.636Z,8.50
2023-03-24T19:46:05.083Z,8.50
2023-03-24T19:48:32.073Z,8.40
2023-03-24T19:50:59.033Z,8.40
2023-03-24T19:53:26.605Z,8.40
2023-03-24T19:55:57.209Z,8.30
2023-03-24T19:58:24.626Z,8.30
2023-03-24T20:00:53.226Z,8.30
2023-03-24T20:03:20.350Z,8.20
2023-03-24T20:05:47.563Z,8.30
2023-03-24T20:08:14.761Z,8.20
2023-03-24T20:10:41.522Z,8.20
2023-03-24T20:13:09.093Z,8.30
2023-03-24T20:15:35.975Z,8.30
2023-03-24T20:18:02.984Z,8.40
2023-03-24T20:20:29.759Z,8.40
2023-03-24T20:22:56.537Z,8.40
2023-03-24T20:25:24.008Z,8.40
2023-03-24T20:27:50.716Z,8.40
2023-03-24T20:30:18.672Z,8.40
2023-03-24T20:32:45.464Z,8.30
2023-03-24T20:35:12.333Z,8.30
2023-03-24T20:37:39.239Z,8.30
2023-03-24T20:40:09.414Z,8.20
2023-03-24T20:42:36.799Z,8.20
2023-03-24T20:45:04.677Z,8.20
2023-03-24T20:47:31.468Z,8.20
2023-03-24T20:49:58.238Z,8.20
2023-03-24T20:52:25.824Z,8.20
2023-03-24T20:54:53.099Z,8.10
2023-03-24T20:57:20.172Z,8.10
2023-03-24T20:59:48.216Z,8.10
2023-03-24T21:02:15.643Z,8.10
2023-03-24T21:04:42.713Z,8.10
2023-03-24T21:07:09.570Z,8.20
2023-03-24T21:09:36.551Z,8.30
2023-03-24T21:12:03.941Z,8.40
2023-03-24T21:14:30.665Z,8.40
2023-03-24T21:16:57.480Z,8.60
2023-03-24T21:19:24.791Z,8.60
2023-03-24T21:21:51.804Z,8.70
2023-03-24T21:24:18.545Z,8.60
2023-03-24T21:26:49.482Z,8.60
2023-03-24T21:29:16.350Z,8.40
2023-03-24T21:31:43.464Z,8.30
2023-03-24T21:34:11.279Z,8.20
2023-03-24T21:36:38.448Z,8.10
2023-03-24T21:39:07.661Z,8.00
2023-03-24T21:41:34.902Z,8.00
2023-03-24T21:44:01.652Z,7.90
2023-03-24T21:46:28.333Z,7.90
2023-03-24T21:48:59.242Z,8.00
2023-03-24T21:51:36.439Z,8.10
2023-03-24T21:54:09.608Z,8.20
2023-03-24T21:56:37.968Z,8.30
2023-03-24T21:59:05.055Z,8.30
2023-03-24T22:01:33.956Z,8.30
2023-03-24T22:04:00.898Z,8.20
2023-03-24T22:06:28.695Z,8.10
2023-03-24T22:08:58.293Z,8.00
2023-03-24T22:11:25.772Z,7.90
2023-03-24T22:13:52.960Z,7.90
2023-03-24T22:16:19.676Z,7.80
2023-03-24T22:18:47.299Z,7.80
2023-03-24T22:21:14.315Z,7.90
2023-03-24T22:23:42.647Z,8.00
2023-03-24T22:26:14.931Z,8.00
2023-03-24T22:28:42.410Z,8.10
2023-03-24T22:31:11.721Z,8.10
2023-03-24T22:33:38.732Z,8.20
2023-03-24T22:36:06.640Z,8.20
2023-03-24T22:38:34.317Z,8.20
2023-03-24T22:41:06.863Z,8.10
2023-03-24T22:43:35.303Z,8.10
2023-03-24T22:46:02.386Z,8.00
2023-03-24T22:48:29.166Z,7.90
2023-03-24T22:50:56.075Z,7.60
2023-03-24T22:53:22.785Z,7.40
2023-03-24T22:55:50.045Z,7.10
2023-03-24T22:58:17.103Z,7.00
2023-03-24T23:00:46.854Z,7.00
2023-03-24T23:03:13.629Z,6.90
2023-03-24T23:05:45.821Z,6.90
2023-03-24T23:08:14.969Z,6.80
2023-03-24T23:10:44.277Z,6.80
2023-03-24T23:13:12.017Z,6.80
2023-03-24T23:15:40.149Z,6.90
2023-03-24T23:18:07.131Z,6.90
2023-03-24T23:20:34.240Z,7.00
2023-03-24T23:23:01.402Z,6.90
2023-03-24T23:25:31.098Z,7.00
2023-03-24T23:27:58.655Z,7.00
2023-03-24T23:30:25.516Z,7.00
2023-03-24T23:32:52.531Z,7.10
2023-03-24T23:35:19.759Z,7.20
2023-03-24T23:37:46.595Z,7.10
2023-03-24T23:40:14.926Z,7.00
2023-03-24T23:42:44.241Z,7.00
2023-03-24T23:45:14.556Z,7.00
2023-03-24T23:47:43.085Z,7.00
2023-03-24T23:50:10.536Z,7.00
2023-03-24T23:52:37.483Z,7.00
2023-03-24T23:55:04.879Z,6.90
2023-03-24T23:57:31.641Z,7.00
2023-03-24T23:59:59.897Z,7.00
